Terminal Aerodrome Forecast
Issued by NWS Topeka, KS

Home | Current Version | Previous Version | Text Only | Print | Product List | Glossary Off
Versions: 1 2 3 4 5 6 7 8 9 10 11 12 13 14 15 16 17 18 19

000
FTUS43 KTOP 291100
TAFTOP
TAF
KTOP 291122Z 2912/3012 00000KT 3SM BR SKC
      TEMPO 2912/2913 1/2SM FG
     FM291400 15005KT P6SM SCT060
     FM300900 15003KT P6SM BKN100=

USA.gov is the U.S. government's official web portal to all federal, state and local government web resources and services.